createdAt,value
2018-11-25T00:06:26.849Z,8.13
2018-11-25T00:14:48.097Z,7.93
2018-11-25T00:23:09.118Z,7.82
2018-11-25T00:31:30.165Z,7.65
2018-11-25T00:39:51.197Z,7.44
2018-11-25T00:48:12.175Z,7.42
2018-11-25T00:56:33.215Z,7.43
2018-11-25T01:05:00.185Z,7.56
2018-11-25T01:13:21.189Z,7.65
2018-11-25T01:21:42.354Z,7.78
2018-11-25T01:30:03.371Z,7.65
2018-11-25T01:38:24.373Z,7.76
2018-11-25T01:46:45.419Z,7.82
2018-11-25T01:55:06.453Z,8.06
2018-11-25T02:03:27.454Z,7.68
2018-11-25T02:11:48.589Z,7.63
2018-11-25T02:20:09.568Z,8.00
2018-11-25T02:28:31.677Z,8.26
2018-11-25T02:36:52.712Z,8.39
2018-11-25T02:45:13.740Z,8.37
2018-11-25T02:53:34.741Z,8.42
2018-11-25T03:01:55.764Z,8.45
2018-11-25T03:10:16.775Z,8.39
2018-11-25T03:18:37.786Z,8.40
2018-11-25T03:26:58.984Z,8.47
2018-11-25T03:35:20.001Z,8.44
2018-11-25T03:43:41.010Z,8.42
2018-11-25T03:52:02.034Z,8.12
2018-11-25T04:00:23.040Z,8.08
2018-11-25T04:08:44.073Z,8.03
2018-11-25T04:17:05.084Z,7.97
2018-11-25T04:25:26.082Z,7.88
2018-11-25T04:33:47.105Z,7.84
2018-11-25T04:42:08.129Z,8.01
2018-11-25T04:50:29.130Z,7.98
2018-11-25T04:58:50.157Z,8.04
2018-11-25T05:07:11.158Z,8.05
2018-11-25T05:15:32.181Z,8.03
2018-11-25T05:23:53.202Z,8.16
2018-11-25T05:32:14.206Z,8.24
2018-11-25T05:40:35.278Z,8.21
2018-11-25T05:48:56.263Z,8.30
2018-11-25T05:57:17.261Z,8.29
2018-11-25T06:05:38.260Z,8.27
2018-11-25T06:13:59.243Z,8.33
2018-11-25T06:22:20.600Z,8.25
2018-11-25T06:30:41.607Z,8.33
2018-11-25T06:39:02.610Z,8.35
2018-11-25T06:47:23.602Z,8.36
2018-11-25T06:55:44.579Z,8.31
2018-11-25T07:04:05.602Z,8.33
2018-11-25T07:12:28.678Z,8.33
2018-11-25T07:20:49.814Z,8.35
2018-11-25T07:29:10.834Z,8.45
2018-11-25T07:37:31.854Z,8.63
2018-11-25T07:45:53.935Z,8.76
2018-11-25T07:54:14.962Z,8.66
2018-11-25T08:02:41.418Z,8.55
2018-11-25T08:10:57.014Z,8.53
2018-11-25T08:19:18.008Z,8.55
2018-11-25T08:27:39.019Z,8.63
2018-11-25T08:36:00.030Z,8.60
2018-11-25T08:44:21.040Z,8.66
2018-11-25T08:52:42.376Z,8.68
2018-11-25T09:01:03.439Z,8.70
2018-11-25T09:09:24.447Z,8.64
2018-11-25T09:17:45.633Z,8.67
2018-11-25T09:26:06.864Z,8.72
2018-11-25T09:34:27.865Z,8.80
2018-11-25T09:42:48.871Z,8.91
2018-11-25T09:51:09.893Z,8.95
2018-11-25T09:59:30.894Z,8.95
2018-11-25T10:07:51.902Z,9.07
2018-11-25T10:16:12.887Z,9.14
2018-11-25T10:24:33.913Z,9.17
2018-11-25T10:32:54.934Z,9.21
2018-11-25T10:41:15.948Z,9.15
2018-11-25T10:49:36.956Z,9.18
2018-11-25T10:57:57.975Z,9.20
2018-11-25T11:06:20.034Z,9.27
2018-11-25T11:14:41.053Z,9.26
2018-11-25T11:23:02.095Z,9.22
2018-11-25T11:31:23.083Z,9.27
2018-11-25T11:39:44.126Z,9.27
2018-11-25T11:48:05.119Z,9.24
2018-11-25T11:56:26.191Z,9.32
2018-11-25T12:04:47.210Z,9.41
2018-11-25T12:13:08.245Z,9.35
2018-11-25T12:21:29.265Z,9.34
2018-11-25T12:29:50.251Z,9.29
2018-11-25T12:38:11.231Z,9.34
2018-11-25T12:46:32.213Z,9.34
2018-11-25T12:54:53.211Z,9.35
2018-11-25T13:03:14.202Z,9.40
2018-11-25T13:11:35.202Z,9.34
2018-11-25T13:19:56.209Z,9.28
2018-11-25T13:28:17.213Z,9.38
2018-11-25T13:36:38.191Z,9.23
2018-11-25T13:44:59.210Z,9.36
2018-11-25T13:53:20.245Z,9.31
2018-11-25T14:01:41.223Z,9.30
2018-11-25T14:10:02.224Z,9.22
2018-11-25T14:18:23.222Z,9.25
2018-11-25T14:26:44.254Z,9.26
2018-11-25T14:35:05.259Z,9.27
2018-11-25T14:43:26.243Z,9.24
2018-11-25T14:51:47.345Z,9.14
2018-11-25T15:00:08.415Z,9.08
2018-11-25T15:08:29.518Z,8.92
2018-11-25T15:16:50.524Z,8.99
2018-11-25T15:25:11.526Z,9.07
2018-11-25T15:33:32.550Z,9.16
2018-11-25T15:41:53.554Z,9.21
2018-11-25T15:50:14.566Z,9.32
2018-11-25T15:58:35.539Z,9.26
2018-11-25T16:06:56.520Z,9.21
2018-11-25T16:15:17.583Z,9.07
2018-11-25T16:23:38.738Z,9.04
2018-11-25T16:31:59.748Z,9.10
2018-11-25T16:40:20.729Z,9.13
2018-11-25T16:48:41.892Z,9.15
2018-11-25T16:57:02.904Z,9.15
2018-11-25T17:05:23.894Z,9.07
2018-11-25T17:13:44.922Z,9.03
2018-11-25T17:22:05.912Z,9.11
2018-11-25T17:30:26.892Z,9.20
2018-11-25T17:38:47.918Z,9.17
2018-11-25T17:47:08.991Z,9.13
2018-11-25T17:55:30.029Z,9.30
2018-11-25T18:03:51.109Z,9.33
2018-11-25T18:12:12.098Z,9.28
2018-11-25T18:20:33.075Z,9.35
2018-11-25T18:28:54.094Z,9.41
2018-11-25T18:37:19.669Z,9.46
2018-11-25T18:45:41.721Z,9.46
2018-11-25T18:54:02.772Z,9.52
2018-11-25T19:02:23.835Z,9.51
2018-11-25T19:10:44.910Z,9.48
2018-11-25T19:19:06.227Z,9.55
2018-11-25T19:27:27.321Z,9.53
2018-11-25T19:35:48.308Z,9.47
2018-11-25T19:44:10.394Z,9.51
2018-11-25T19:52:31.398Z,9.44
2018-11-25T20:00:52.383Z,9.52
2018-11-25T20:09:13.830Z,9.52
2018-11-25T20:17:34.859Z,9.64
2018-11-25T20:25:55.926Z,9.74
2018-11-25T20:34:16.927Z,9.78
2018-11-25T20:42:37.953Z,9.73
2018-11-25T20:50:59.044Z,9.68
2018-11-25T20:59:20.085Z,9.64
2018-11-25T21:07:41.173Z,9.65
2018-11-25T21:16:02.171Z,9.77
2018-11-25T21:24:23.190Z,9.77
2018-11-25T21:32:44.194Z,9.81
2018-11-25T21:41:05.179Z,9.77
2018-11-25T21:49:26.222Z,9.69
2018-11-25T21:57:47.228Z,9.69
2018-11-25T22:06:08.269Z,9.73
2018-11-25T22:14:29.282Z,9.76
2018-11-25T22:22:50.286Z,9.76
2018-11-25T22:31:11.259Z,9.83
2018-11-25T22:39:32.297Z,9.79
2018-11-25T22:47:53.279Z,9.75
2018-11-25T22:56:14.305Z,9.58
2018-11-25T23:04:35.666Z,9.62
2018-11-25T23:12:56.684Z,9.48
2018-11-25T23:21:17.710Z,9.46
2018-11-25T23:29:38.725Z,9.29
2018-11-25T23:37:59.735Z,9.36
2018-11-25T23:46:20.754Z,9.42
2018-11-25T23:54:41.773Z,9.33
